sensor_id;sensor_type;location;lat;lon;timestamp;temperature;humidity
4840;DHT22;2434;48.486;7.964;2022-07-12T00:00:09;19.90;49.80
4840;DHT22;2434;48.486;7.964;2022-07-12T00:02:38;19.80;49.90
4840;DHT22;2434;48.486;7.964;2022-07-12T00:05:09;19.80;50.10
4840;DHT22;2434;48.486;7.964;2022-07-12T00:07:37;19.80;50.20
4840;DHT22;2434;48.486;7.964;2022-07-12T00:10:05;19.80;50.00
4840;DHT22;2434;48.486;7.964;2022-07-12T00:12:33;19.70;50.50
4840;DHT22;2434;48.486;7.964;2022-07-12T00:15:02;19.70;50.90
4840;DHT22;2434;48.486;7.964;2022-07-12T00:17:30;19.60;51.00
4840;DHT22;2434;48.486;7.964;2022-07-12T00:19:59;19.60;50.90
4840;DHT22;2434;48.486;7.964;2022-07-12T00:22:28;19.60;50.90
4840;DHT22;2434;48.486;7.964;2022-07-12T00:24:56;19.20;52.20
4840;DHT22;2434;48.486;7.964;2022-07-12T00:27:25;19.40;51.90
4840;DHT22;2434;48.486;7.964;2022-07-12T00:29:55;19.40;51.90
4840;DHT22;2434;48.486;7.964;2022-07-12T00:32:24;19.40;51.90
4840;DHT22;2434;48.486;7.964;2022-07-12T00:34:52;19.40;52.00
4840;DHT22;2434;48.486;7.964;2022-07-12T00:37:20;19.40;51.60
4840;DHT22;2434;48.486;7.964;2022-07-12T00:39:50;19.40;51.50
4840;DHT22;2434;48.486;7.964;2022-07-12T00:42:19;19.30;51.80
4840;DHT22;2434;48.486;7.964;2022-07-12T00:44:47;19.30;52.20
4840;DHT22;2434;48.486;7.964;2022-07-12T00:47:25;19.30;52.30
4840;DHT22;2434;48.486;7.964;2022-07-12T00:49:56;19.30;52.20
4840;DHT22;2434;48.486;7.964;2022-07-12T00:52:25;19.20;52.30
4840;DHT22;2434;48.486;7.964;2022-07-12T00:54:56;19.20;52.00
4840;DHT22;2434;48.486;7.964;2022-07-12T00:57:24;19.20;52.50
4840;DHT22;2434;48.486;7.964;2022-07-12T00:59:52;19.20;53.30
4840;DHT22;2434;48.486;7.964;2022-07-12T01:02:21;19.10;52.60
4840;DHT22;2434;48.486;7.964;2022-07-12T01:04:50;19.10;52.90
4840;DHT22;2434;48.486;7.964;2022-07-12T01:07:19;19.10;52.70
4840;DHT22;2434;48.486;7.964;2022-07-12T01:09:47;19.10;53.10
4840;DHT22;2434;48.486;7.964;2022-07-12T01:12:17;19.00;52.90
4840;DHT22;2434;48.486;7.964;2022-07-12T01:14:47;19.00;53.40
4840;DHT22;2434;48.486;7.964;2022-07-12T01:17:15;18.90;53.80
4840;DHT22;2434;48.486;7.964;2022-07-12T01:19:44;18.80;53.80
4840;DHT22;2434;48.486;7.964;2022-07-12T01:22:14;18.80;54.10
4840;DHT22;2434;48.486;7.964;2022-07-12T01:24:45;18.80;54.00
4840;DHT22;2434;48.486;7.964;2022-07-12T01:27:13;18.80;53.90
4840;DHT22;2434;48.486;7.964;2022-07-12T01:29:41;18.80;54.10
4840;DHT22;2434;48.486;7.964;2022-07-12T01:32:09;18.80;54.30
4840;DHT22;2434;48.486;7.964;2022-07-12T01:34:53;18.80;54.40
4840;DHT22;2434;48.486;7.964;2022-07-12T01:37:24;18.80;54.30
4840;DHT22;2434;48.486;7.964;2022-07-12T01:39:55;18.80;54.40
4840;DHT22;2434;48.486;7.964;2022-07-12T01:42:25;18.80;54.30
4840;DHT22;2434;48.486;7.964;2022-07-12T01:44:54;18.80;54.50
4840;DHT22;2434;48.486;7.964;2022-07-12T01:47:23;18.70;54.80
4840;DHT22;2434;48.486;7.964;2022-07-12T01:49:52;18.70;54.70
4840;DHT22;2434;48.486;7.964;2022-07-12T01:52:20;18.70;54.70
4840;DHT22;2434;48.486;7.964;2022-07-12T01:54:49;18.60;54.70
4840;DHT22;2434;48.486;7.964;2022-07-12T01:57:19;18.60;54.90
4840;DHT22;2434;48.486;7.964;2022-07-12T01:59:48;18.60;54.80
4840;DHT22;2434;48.486;7.964;2022-07-12T02:02:16;18.60;55.00
4840;DHT22;2434;48.486;7.964;2022-07-12T02:04:46;18.50;56.10
4840;DHT22;2434;48.486;7.964;2022-07-12T02:07:16;18.20;56.10
4840;DHT22;2434;48.486;7.964;2022-07-12T02:09:44;18.20;56.20
4840;DHT22;2434;48.486;7.964;2022-07-12T02:12:12;17.90;57.70
4840;DHT22;2434;48.486;7.964;2022-07-12T02:14:42;18.00;56.90
4840;DHT22;2434;48.486;7.964;2022-07-12T02:17:10;18.10;56.70
4840;DHT22;2434;48.486;7.964;2022-07-12T02:19:38;18.30;56.00
4840;DHT22;2434;48.486;7.964;2022-07-12T02:22:07;18.30;55.50
4840;DHT22;2434;48.486;7.964;2022-07-12T02:24:35;17.60;58.90
4840;DHT22;2434;48.486;7.964;2022-07-12T02:27:04;17.90;57.10
4840;DHT22;2434;48.486;7.964;2022-07-12T02:29:32;18.10;56.70
4840;DHT22;2434;48.486;7.964;2022-07-12T02:32:04;18.20;56.70
4840;DHT22;2434;48.486;7.964;2022-07-12T02:34:32;18.20;56.50
4840;DHT22;2434;48.486;7.964;2022-07-12T02:37:00;18.20;56.40
4840;DHT22;2434;48.486;7.964;2022-07-12T02:39:29;18.20;56.30
4840;DHT22;2434;48.486;7.964;2022-07-12T02:41:58;18.20;56.20
4840;DHT22;2434;48.486;7.964;2022-07-12T02:44:26;18.20;56.30
4840;DHT22;2434;48.486;7.964;2022-07-12T02:46:54;18.20;56.40
4840;DHT22;2434;48.486;7.964;2022-07-12T02:49:24;18.20;56.20
4840;DHT22;2434;48.486;7.964;2022-07-12T02:51:52;18.10;56.50
4840;DHT22;2434;48.486;7.964;2022-07-12T02:54:21;18.10;56.50
4840;DHT22;2434;48.486;7.964;2022-07-12T02:56:49;18.10;56.70
4840;DHT22;2434;48.486;7.964;2022-07-12T02:59:17;18.00;56.60
4840;DHT22;2434;48.486;7.964;2022-07-12T03:01:45;18.00;56.80
4840;DHT22;2434;48.486;7.964;2022-07-12T03:04:14;18.00;57.50
4840;DHT22;2434;48.486;7.964;2022-07-12T03:06:43;18.00;56.80
4840;DHT22;2434;48.486;7.964;2022-07-12T03:09:12;17.90;56.90
4840;DHT22;2434;48.486;7.964;2022-07-12T03:11:40;17.90;57.10
4840;DHT22;2434;48.486;7.964;2022-07-12T03:14:08;17.90;57.10
4840;DHT22;2434;48.486;7.964;2022-07-12T03:16:36;17.90;57.30
4840;DHT22;2434;48.486;7.964;2022-07-12T03:19:04;17.80;57.40
4840;DHT22;2434;48.486;7.964;2022-07-12T03:21:33;17.80;57.70
4840;DHT22;2434;48.486;7.964;2022-07-12T03:24:03;17.80;57.90
4840;DHT22;2434;48.486;7.964;2022-07-12T03:26:31;17.80;57.70
4840;DHT22;2434;48.486;7.964;2022-07-12T03:28:59;17.70;57.70
4840;DHT22;2434;48.486;7.964;2022-07-12T03:31:28;17.70;57.80
4840;DHT22;2434;48.486;7.964;2022-07-12T03:33:56;17.70;57.90
4840;DHT22;2434;48.486;7.964;2022-07-12T03:36:25;17.70;57.80
4840;DHT22;2434;48.486;7.964;2022-07-12T03:38:53;17.70;57.40
4840;DHT22;2434;48.486;7.964;2022-07-12T03:41:23;17.70;57.70
4840;DHT22;2434;48.486;7.964;2022-07-12T03:43:51;17.30;58.70
4840;DHT22;2434;48.486;7.964;2022-07-12T03:46:19;17.00;60.40
4840;DHT22;2434;48.486;7.964;2022-07-12T03:48:48;17.20;59.10
4840;DHT22;2434;48.486;7.964;2022-07-12T03:51:16;17.40;58.90
4840;DHT22;2434;48.486;7.964;2022-07-12T03:53:44;17.50;58.30
4840;DHT22;2434;48.486;7.964;2022-07-12T03:56:12;17.50;58.00
4840;DHT22;2434;48.486;7.964;2022-07-12T03:59:02;17.50;58.20
4840;DHT22;2434;48.486;7.964;2022-07-12T04:01:31;17.40;58.70
4840;DHT22;2434;48.486;7.964;2022-07-12T04:04:00;17.40;58.60
4840;DHT22;2434;48.486;7.964;2022-07-12T04:06:28;17.40;59.20
4840;DHT22;2434;48.486;7.964;2022-07-12T04:08:56;17.40;59.00
4840;DHT22;2434;48.486;7.964;2022-07-12T04:11:25;17.40;59.00
4840;DHT22;2434;48.486;7.964;2022-07-12T04:13:54;17.30;59.20
4840;DHT22;2434;48.486;7.964;2022-07-12T04:16:24;17.30;59.30
4840;DHT22;2434;48.486;7.964;2022-07-12T04:18:52;17.30;59.50
4840;DHT22;2434;48.486;7.964;2022-07-12T04:21:22;17.30;59.50
4840;DHT22;2434;48.486;7.964;2022-07-12T04:23:50;17.30;59.70
4840;DHT22;2434;48.486;7.964;2022-07-12T04:26:18;17.30;59.60
4840;DHT22;2434;48.486;7.964;2022-07-12T04:28:47;17.30;60.10
4840;DHT22;2434;48.486;7.964;2022-07-12T04:31:15;17.30;60.30
4840;DHT22;2434;48.486;7.964;2022-07-12T04:33:45;17.30;60.30
4840;DHT22;2434;48.486;7.964;2022-07-12T04:36:13;17.30;61.40
4840;DHT22;2434;48.486;7.964;2022-07-12T04:38:41;17.30;61.00
4840;DHT22;2434;48.486;7.964;2022-07-12T04:41:10;17.30;61.20
4840;DHT22;2434;48.486;7.964;2022-07-12T04:43:38;17.30;61.90
4840;DHT22;2434;48.486;7.964;2022-07-12T04:46:07;17.30;61.60
4840;DHT22;2434;48.486;7.964;2022-07-12T04:48:36;17.30;61.60
4840;DHT22;2434;48.486;7.964;2022-07-12T04:51:06;17.30;62.50
4840;DHT22;2434;48.486;7.964;2022-07-12T04:53:34;17.20;61.90
4840;DHT22;2434;48.486;7.964;2022-07-12T04:56:04;17.20;62.10
4840;DHT22;2434;48.486;7.964;2022-07-12T04:59:02;17.30;62.40
4840;DHT22;2434;48.486;7.964;2022-07-12T05:01:31;17.30;62.30
4840;DHT22;2434;48.486;7.964;2022-07-12T05:04:00;17.30;62.50
4840;DHT22;2434;48.486;7.964;2022-07-12T05:06:29;17.30;62.10
4840;DHT22;2434;48.486;7.964;2022-07-12T05:08:58;17.30;63.50
4840;DHT22;2434;48.486;7.964;2022-07-12T05:11:26;17.10;65.70
4840;DHT22;2434;48.486;7.964;2022-07-12T05:13:54;17.10;66.00
4840;DHT22;2434;48.486;7.964;2022-07-12T05:16:23;17.20;64.90
4840;DHT22;2434;48.486;7.964;2022-07-12T05:18:51;16.90;68.90
4840;DHT22;2434;48.486;7.964;2022-07-12T05:21:20;16.50;72.60
4840;DHT22;2434;48.486;7.964;2022-07-12T05:23:49;16.50;72.90
4840;DHT22;2434;48.486;7.964;2022-07-12T05:26:18;16.70;72.50
4840;DHT22;2434;48.486;7.964;2022-07-12T05:28:47;16.90;71.30
4840;DHT22;2434;48.486;7.964;2022-07-12T05:31:15;16.90;71.90
4840;DHT22;2434;48.486;7.964;2022-07-12T05:33:43;16.70;73.90
4840;DHT22;2434;48.486;7.964;2022-07-12T05:36:12;16.60;74.30
4840;DHT22;2434;48.486;7.964;2022-07-12T05:38:40;16.50;75.70
4840;DHT22;2434;48.486;7.964;2022-07-12T05:41:09;16.30;78.10
4840;DHT22;2434;48.486;7.964;2022-07-12T05:43:38;16.30;79.10
4840;DHT22;2434;48.486;7.964;2022-07-12T05:46:06;16.30;79.60
4840;DHT22;2434;48.486;7.964;2022-07-12T05:48:36;16.30;79.00
4840;DHT22;2434;48.486;7.964;2022-07-12T05:51:05;16.30;80.10
4840;DHT22;2434;48.486;7.964;2022-07-12T05:53:50;16.40;79.30
4840;DHT22;2434;48.486;7.964;2022-07-12T05:56:20;16.40;81.00
4840;DHT22;2434;48.486;7.964;2022-07-12T05:58:48;16.40;79.60
4840;DHT22;2434;48.486;7.964;2022-07-12T06:01:17;16.50;79.80
4840;DHT22;2434;48.486;7.964;2022-07-12T06:03:45;16.50;79.70
4840;DHT22;2434;48.486;7.964;2022-07-12T06:06:14;16.50;79.90
4840;DHT22;2434;48.486;7.964;2022-07-12T06:08:42;16.60;79.80
4840;DHT22;2434;48.486;7.964;2022-07-12T06:11:11;16.60;79.50
4840;DHT22;2434;48.486;7.964;2022-07-12T06:13:41;16.60;79.20
4840;DHT22;2434;48.486;7.964;2022-07-12T06:16:09;16.70;78.70
4840;DHT22;2434;48.486;7.964;2022-07-12T06:18:38;16.70;77.70
4840;DHT22;2434;48.486;7.964;2022-07-12T06:21:06;16.70;77.90
4840;DHT22;2434;48.486;7.964;2022-07-12T06:23:34;16.70;77.70
4840;DHT22;2434;48.486;7.964;2022-07-12T06:26:02;16.90;78.30
4840;DHT22;2434;48.486;7.964;2022-07-12T06:28:31;17.00;77.50
4840;DHT22;2434;48.486;7.964;2022-07-12T06:31:01;17.10;76.40
4840;DHT22;2434;48.486;7.964;2022-07-12T06:33:30;17.20;75.80
4840;DHT22;2434;48.486;7.964;2022-07-12T06:35:58;17.10;75.70
4840;DHT22;2434;48.486;7.964;2022-07-12T06:38:26;17.30;74.10
4840;DHT22;2434;48.486;7.964;2022-07-12T06:40:55;17.40;75.60
4840;DHT22;2434;48.486;7.964;2022-07-12T06:43:23;17.40;75.20
4840;DHT22;2434;48.486;7.964;2022-07-12T06:45:52;17.40;75.10
4840;DHT22;2434;48.486;7.964;2022-07-12T06:48:22;17.30;76.60
4840;DHT22;2434;48.486;7.964;2022-07-12T06:50:50;17.40;75.50
4840;DHT22;2434;48.486;7.964;2022-07-12T06:53:18;17.50;75.40
4840;DHT22;2434;48.486;7.964;2022-07-12T06:55:47;17.60;73.90
4840;DHT22;2434;48.486;7.964;2022-07-12T06:58:15;17.70;74.40
4840;DHT22;2434;48.486;7.964;2022-07-12T07:00:43;17.90;74.30
4840;DHT22;2434;48.486;7.964;2022-07-12T07:03:11;18.00;73.30
4840;DHT22;2434;48.486;7.964;2022-07-12T07:05:41;18.00;71.80
4840;DHT22;2434;48.486;7.964;2022-07-12T07:08:09;18.00;69.70
4840;DHT22;2434;48.486;7.964;2022-07-12T07:10:38;18.20;70.70
4840;DHT22;2434;48.486;7.964;2022-07-12T07:13:07;18.20;71.40
4840;DHT22;2434;48.486;7.964;2022-07-12T07:15:39;18.30;67.30
4840;DHT22;2434;48.486;7.964;2022-07-12T07:18:08;18.40;67.50
4840;DHT22;2434;48.486;7.964;2022-07-12T07:20:36;18.50;68.10
4840;DHT22;2434;48.486;7.964;2022-07-12T07:23:06;18.60;67.80
4840;DHT22;2434;48.486;7.964;2022-07-12T07:25:37;18.70;69.10
4840;DHT22;2434;48.486;7.964;2022-07-12T07:28:05;18.80;67.80
4840;DHT22;2434;48.486;7.964;2022-07-12T07:30:33;19.10;68.40
4840;DHT22;2434;48.486;7.964;2022-07-12T07:33:19;19.10;68.10
4840;DHT22;2434;48.486;7.964;2022-07-12T07:35:48;19.20;66.60
4840;DHT22;2434;48.486;7.964;2022-07-12T07:38:18;19.20;67.00
4840;DHT22;2434;48.486;7.964;2022-07-12T07:40:46;19.40;67.30
4840;DHT22;2434;48.486;7.964;2022-07-12T07:43:15;19.50;66.90
4840;DHT22;2434;48.486;7.964;2022-07-12T07:45:43;19.60;67.60
4840;DHT22;2434;48.486;7.964;2022-07-12T07:48:11;19.80;66.90
4840;DHT22;2434;48.486;7.964;2022-07-12T07:50:50;19.80;65.10
4840;DHT22;2434;48.486;7.964;2022-07-12T07:53:20;19.70;65.60
4840;DHT22;2434;48.486;7.964;2022-07-12T07:55:48;19.70;65.60
4840;DHT22;2434;48.486;7.964;2022-07-12T07:58:17;20.00;65.70
4840;DHT22;2434;48.486;7.964;2022-07-12T08:00:49;20.10;64.60
4840;DHT22;2434;48.486;7.964;2022-07-12T08:03:18;20.30;64.70
4840;DHT22;2434;48.486;7.964;2022-07-12T08:05:47;20.20;62.60
4840;DHT22;2434;48.486;7.964;2022-07-12T08:08:19;20.40;62.10
4840;DHT22;2434;48.486;7.964;2022-07-12T08:10:49;20.50;60.60
4840;DHT22;2434;48.486;7.964;2022-07-12T08:13:17;20.60;59.80
4840;DHT22;2434;48.486;7.964;2022-07-12T08:15:45;20.60;59.80
4840;DHT22;2434;48.486;7.964;2022-07-12T08:18:14;20.70;60.00
4840;DHT22;2434;48.486;7.964;2022-07-12T08:20:42;20.90;58.00
4840;DHT22;2434;48.486;7.964;2022-07-12T08:23:14;20.80;59.50
4840;DHT22;2434;48.486;7.964;2022-07-12T08:25:43;20.90;60.20
4840;DHT22;2434;48.486;7.964;2022-07-12T08:28:12;21.10;60.50
4840;DHT22;2434;48.486;7.964;2022-07-12T08:30:40;21.10;59.70
4840;DHT22;2434;48.486;7.964;2022-07-12T08:33:14;21.20;59.40
4840;DHT22;2434;48.486;7.964;2022-07-12T08:35:42;21.30;61.10
4840;DHT22;2434;48.486;7.964;2022-07-12T08:38:11;21.60;58.80
4840;DHT22;2434;48.486;7.964;2022-07-12T08:40:40;22.00;58.20
4840;DHT22;2434;48.486;7.964;2022-07-12T08:43:10;21.60;55.70
4840;DHT22;2434;48.486;7.964;2022-07-12T08:45:39;21.50;57.20
4840;DHT22;2434;48.486;7.964;2022-07-12T08:48:09;21.70;58.00
4840;DHT22;2434;48.486;7.964;2022-07-12T08:50:37;22.00;54.20
4840;DHT22;2434;48.486;7.964;2022-07-12T08:53:11;22.10;55.20
4840;DHT22;2434;48.486;7.964;2022-07-12T08:55:40;21.90;55.60
4840;DHT22;2434;48.486;7.964;2022-07-12T08:58:16;22.20;55.20
4840;DHT22;2434;48.486;7.964;2022-07-12T09:00:45;22.30;53.40
4840;DHT22;2434;48.486;7.964;2022-07-12T09:03:17;22.00;52.50
4840;DHT22;2434;48.486;7.964;2022-07-12T09:05:52;22.20;54.20
4840;DHT22;2434;48.486;7.964;2022-07-12T09:08:27;22.50;53.10
4840;DHT22;2434;48.486;7.964;2022-07-12T09:10:57;22.80;51.40
4840;DHT22;2434;48.486;7.964;2022-07-12T09:13:49;22.70;51.20
4840;DHT22;2434;48.486;7.964;2022-07-12T09:16:19;22.50;50.10
4840;DHT22;2434;48.486;7.964;2022-07-12T09:18:49;23.00;48.30
4840;DHT22;2434;48.486;7.964;2022-07-12T09:21:22;23.00;46.00
4840;DHT22;2434;48.486;7.964;2022-07-12T09:23:55;23.00;45.70
4840;DHT22;2434;48.486;7.964;2022-07-12T09:26:24;22.90;46.20
4840;DHT22;2434;48.486;7.964;2022-07-12T09:29:05;22.80;45.60
4840;DHT22;2434;48.486;7.964;2022-07-12T09:31:41;22.90;48.10
4840;DHT22;2434;48.486;7.964;2022-07-12T09:34:29;23.00;45.40
4840;DHT22;2434;48.486;7.964;2022-07-12T09:37:15;23.20;44.70
4840;DHT22;2434;48.486;7.964;2022-07-12T09:39:44;23.30;46.20
4840;DHT22;2434;48.486;7.964;2022-07-12T09:42:13;23.60;43.50
4840;DHT22;2434;48.486;7.964;2022-07-12T09:44:43;23.40;43.90
4840;DHT22;2434;48.486;7.964;2022-07-12T09:47:12;23.60;43.60
4840;DHT22;2434;48.486;7.964;2022-07-12T09:49:43;23.60;42.60
4840;DHT22;2434;48.486;7.964;2022-07-12T09:52:13;23.40;41.70
4840;DHT22;2434;48.486;7.964;2022-07-12T09:54:44;23.50;41.30
4840;DHT22;2434;48.486;7.964;2022-07-12T09:57:20;23.90;43.10
4840;DHT22;2434;48.486;7.964;2022-07-12T09:59:50;24.00;41.10
4840;DHT22;2434;48.486;7.964;2022-07-12T10:02:19;24.10;40.20
4840;DHT22;2434;48.486;7.964;2022-07-12T10:04:49;24.10;40.30
4840;DHT22;2434;48.486;7.964;2022-07-12T10:07:19;23.90;40.70
4840;DHT22;2434;48.486;7.964;2022-07-12T10:09:48;24.10;41.60
4840;DHT22;2434;48.486;7.964;2022-07-12T10:12:20;24.30;40.10
4840;DHT22;2434;48.486;7.964;2022-07-12T10:14:55;24.30;39.90
4840;DHT22;2434;48.486;7.964;2022-07-12T10:17:25;24.30;39.40
4840;DHT22;2434;48.486;7.964;2022-07-12T10:20:15;24.20;40.00
4840;DHT22;2434;48.486;7.964;2022-07-12T10:22:45;23.90;37.70
4840;DHT22;2434;48.486;7.964;2022-07-12T10:25:30;24.30;39.30
4840;DHT22;2434;48.486;7.964;2022-07-12T10:27:59;24.30;38.80
4840;DHT22;2434;48.486;7.964;2022-07-12T10:30:30;24.50;37.60
4840;DHT22;2434;48.486;7.964;2022-07-12T10:33:15;24.40;38.00
4840;DHT22;2434;48.486;7.964;2022-07-12T10:35:58;24.70;38.30
4840;DHT22;2434;48.486;7.964;2022-07-12T10:38:27;24.60;37.20
4840;DHT22;2434;48.486;7.964;2022-07-12T10:40:55;24.70;40.20
4840;DHT22;2434;48.486;7.964;2022-07-12T10:43:28;24.70;35.10
4840;DHT22;2434;48.486;7.964;2022-07-12T10:46:17;24.70;37.40
4840;DHT22;2434;48.486;7.964;2022-07-12T10:48:47;24.90;35.90
4840;DHT22;2434;48.486;7.964;2022-07-12T10:51:16;24.80;34.40
4840;DHT22;2434;48.486;7.964;2022-07-12T10:53:47;24.80;35.00
4840;DHT22;2434;48.486;7.964;2022-07-12T10:56:21;25.00;35.90
4840;DHT22;2434;48.486;7.964;2022-07-12T10:58:57;25.10;35.70
4840;DHT22;2434;48.486;7.964;2022-07-12T11:01:29;25.10;36.00
4840;DHT22;2434;48.486;7.964;2022-07-12T11:04:04;25.00;34.30
4840;DHT22;2434;48.486;7.964;2022-07-12T11:06:35;25.10;34.30
4840;DHT22;2434;48.486;7.964;2022-07-12T11:09:05;25.30;35.50
4840;DHT22;2434;48.486;7.964;2022-07-12T11:11:39;25.20;34.10
4840;DHT22;2434;48.486;7.964;2022-07-12T11:14:08;25.10;34.20
4840;DHT22;2434;48.486;7.964;2022-07-12T11:16:44;25.10;34.30
4840;DHT22;2434;48.486;7.964;2022-07-12T11:19:14;25.30;34.50
4840;DHT22;2434;48.486;7.964;2022-07-12T11:21:43;25.30;35.20
4840;DHT22;2434;48.486;7.964;2022-07-12T11:24:16;25.30;34.00
4840;DHT22;2434;48.486;7.964;2022-07-12T11:26:45;25.40;34.20
4840;DHT22;2434;48.486;7.964;2022-07-12T11:29:14;25.70;34.50
4840;DHT22;2434;48.486;7.964;2022-07-12T11:31:44;25.50;33.80
4840;DHT22;2434;48.486;7.964;2022-07-12T11:34:22;25.60;35.70
4840;DHT22;2434;48.486;7.964;2022-07-12T11:36:52;25.50;34.10
4840;DHT22;2434;48.486;7.964;2022-07-12T11:39:31;25.70;37.20
4840;DHT22;2434;48.486;7.964;2022-07-12T11:41:59;26.00;33.60
4840;DHT22;2434;48.486;7.964;2022-07-12T11:44:41;26.00;32.40
4840;DHT22;2434;48.486;7.964;2022-07-12T11:47:11;26.00;33.70
4840;DHT22;2434;48.486;7.964;2022-07-12T11:49:42;25.90;33.10
4840;DHT22;2434;48.486;7.964;2022-07-12T11:52:13;26.00;32.00
4840;DHT22;2434;48.486;7.964;2022-07-12T11:54:42;25.80;32.80
4840;DHT22;2434;48.486;7.964;2022-07-12T11:57:12;26.00;32.10
4840;DHT22;2434;48.486;7.964;2022-07-12T11:59:40;26.00;33.50
4840;DHT22;2434;48.486;7.964;2022-07-12T12:02:12;26.10;31.20
4840;DHT22;2434;48.486;7.964;2022-07-12T12:04:46;26.00;32.00
4840;DHT22;2434;48.486;7.964;2022-07-12T12:07:16;26.00;32.10
4840;DHT22;2434;48.486;7.964;2022-07-12T12:10:02;26.00;32.60
4840;DHT22;2434;48.486;7.964;2022-07-12T12:12:39;26.10;32.60
4840;DHT22;2434;48.486;7.964;2022-07-12T12:15:10;26.40;32.80
4840;DHT22;2434;48.486;7.964;2022-07-12T12:17:46;26.20;31.30
4840;DHT22;2434;48.486;7.964;2022-07-12T12:20:17;26.40;32.70
4840;DHT22;2434;48.486;7.964;2022-07-12T12:22:47;26.40;32.00
4840;DHT22;2434;48.486;7.964;2022-07-12T12:25:17;26.30;31.20
4840;DHT22;2434;48.486;7.964;2022-07-12T12:27:47;26.20;30.40
4840;DHT22;2434;48.486;7.964;2022-07-12T12:30:48;26.30;31.10
4840;DHT22;2434;48.486;7.964;2022-07-12T12:33:34;26.30;30.60
4840;DHT22;2434;48.486;7.964;2022-07-12T12:36:27;26.30;29.80
4840;DHT22;2434;48.486;7.964;2022-07-12T12:38:57;26.40;31.50
4840;DHT22;2434;48.486;7.964;2022-07-12T12:41:28;26.70;29.70
4840;DHT22;2434;48.486;7.964;2022-07-12T12:43:57;26.50;30.40
4840;DHT22;2434;48.486;7.964;2022-07-12T12:46:46;26.70;30.70
4840;DHT22;2434;48.486;7.964;2022-07-12T12:49:16;26.70;31.00
4840;DHT22;2434;48.486;7.964;2022-07-12T12:51:51;26.60;29.80
4840;DHT22;2434;48.486;7.964;2022-07-12T12:54:31;26.50;29.70
4840;DHT22;2434;48.486;7.964;2022-07-12T12:57:00;26.70;29.90
4840;DHT22;2434;48.486;7.964;2022-07-12T12:59:28;26.50;29.80
4840;DHT22;2434;48.486;7.964;2022-07-12T13:01:57;26.70;30.70
4840;DHT22;2434;48.486;7.964;2022-07-12T13:04:29;26.50;29.30
4840;DHT22;2434;48.486;7.964;2022-07-12T13:06:57;26.70;31.30
4840;DHT22;2434;48.486;7.964;2022-07-12T13:09:30;26.70;28.50
4840;DHT22;2434;48.486;7.964;2022-07-12T13:11:59;26.80;29.10
4840;DHT22;2434;48.486;7.964;2022-07-12T13:14:28;26.90;28.70
4840;DHT22;2434;48.486;7.964;2022-07-12T13:16:57;27.00;28.50
4840;DHT22;2434;48.486;7.964;2022-07-12T13:19:25;26.90;28.90
4840;DHT22;2434;48.486;7.964;2022-07-12T13:21:55;26.90;29.00
4840;DHT22;2434;48.486;7.964;2022-07-12T13:24:24;27.00;28.10
4840;DHT22;2434;48.486;7.964;2022-07-12T13:26:52;26.90;29.30
4840;DHT22;2434;48.486;7.964;2022-07-12T13:29:21;26.70;28.30
4840;DHT22;2434;48.486;7.964;2022-07-12T13:31:49;26.90;29.00
4840;DHT22;2434;48.486;7.964;2022-07-12T13:34:23;27.10;29.40
4840;DHT22;2434;48.486;7.964;2022-07-12T13:36:51;27.10;28.70
4840;DHT22;2434;48.486;7.964;2022-07-12T13:39:21;26.90;27.00
4840;DHT22;2434;48.486;7.964;2022-07-12T13:42:06;27.00;28.60
4840;DHT22;2434;48.486;7.964;2022-07-12T13:44:35;27.00;28.10
4840;DHT22;2434;48.486;7.964;2022-07-12T13:47:04;26.80;27.60
4840;DHT22;2434;48.486;7.964;2022-07-12T13:49:32;26.90;26.80
4840;DHT22;2434;48.486;7.964;2022-07-12T13:52:00;26.90;27.50
4840;DHT22;2434;48.486;7.964;2022-07-12T13:54:30;26.90;28.30
4840;DHT22;2434;48.486;7.964;2022-07-12T13:56:59;27.10;28.70
4840;DHT22;2434;48.486;7.964;2022-07-12T13:59:27;27.10;27.40
4840;DHT22;2434;48.486;7.964;2022-07-12T14:01:55;27.20;27.40
4840;DHT22;2434;48.486;7.964;2022-07-12T14:04:24;27.40;28.20
4840;DHT22;2434;48.486;7.964;2022-07-12T14:06:52;27.20;27.80
4840;DHT22;2434;48.486;7.964;2022-07-12T14:09:21;27.20;26.80
4840;DHT22;2434;48.486;7.964;2022-07-12T14:11:50;27.10;27.50
4840;DHT22;2434;48.486;7.964;2022-07-12T14:14:18;27.30;26.50
4840;DHT22;2434;48.486;7.964;2022-07-12T14:17:08;27.30;27.20
4840;DHT22;2434;48.486;7.964;2022-07-12T14:19:36;27.20;26.30
4840;DHT22;2434;48.486;7.964;2022-07-12T14:22:04;27.20;26.00
4840;DHT22;2434;48.486;7.964;2022-07-12T14:24:33;27.20;26.40
4840;DHT22;2434;48.486;7.964;2022-07-12T14:27:03;27.20;27.40
4840;DHT22;2434;48.486;7.964;2022-07-12T14:29:32;27.50;26.00
4840;DHT22;2434;48.486;7.964;2022-07-12T14:32:01;27.30;26.00
4840;DHT22;2434;48.486;7.964;2022-07-12T14:34:29;27.10;25.60
4840;DHT22;2434;48.486;7.964;2022-07-12T14:36:57;27.20;26.70
4840;DHT22;2434;48.486;7.964;2022-07-12T14:39:26;27.40;26.20
4840;DHT22;2434;48.486;7.964;2022-07-12T14:41:55;27.40;25.40
4840;DHT22;2434;48.486;7.964;2022-07-12T14:44:25;27.30;25.10
4840;DHT22;2434;48.486;7.964;2022-07-12T14:46:53;27.40;24.50
4840;DHT22;2434;48.486;7.964;2022-07-12T14:49:22;27.40;25.60
4840;DHT22;2434;48.486;7.964;2022-07-12T14:51:50;27.30;25.00
4840;DHT22;2434;48.486;7.964;2022-07-12T14:54:19;27.60;24.60
4840;DHT22;2434;48.486;7.964;2022-07-12T14:56:47;27.50;24.50
4840;DHT22;2434;48.486;7.964;2022-07-12T14:59:19;27.40;24.70
4840;DHT22;2434;48.486;7.964;2022-07-12T15:01:51;27.40;24.70
4840;DHT22;2434;48.486;7.964;2022-07-12T15:04:20;27.20;24.50
4840;DHT22;2434;48.486;7.964;2022-07-12T15:06:48;27.20;23.70
4840;DHT22;2434;48.486;7.964;2022-07-12T15:09:16;27.30;25.20
4840;DHT22;2434;48.486;7.964;2022-07-12T15:11:44;27.50;24.70
4840;DHT22;2434;48.486;7.964;2022-07-12T15:14:13;27.60;24.20
4840;DHT22;2434;48.486;7.964;2022-07-12T15:16:41;27.60;24.40
4840;DHT22;2434;48.486;7.964;2022-07-12T15:19:11;27.50;23.90
4840;DHT22;2434;48.486;7.964;2022-07-12T15:21:39;27.40;23.90
4840;DHT22;2434;48.486;7.964;2022-07-12T15:24:07;27.30;23.90
4840;DHT22;2434;48.486;7.964;2022-07-12T15:26:36;27.20;23.80
4840;DHT22;2434;48.486;7.964;2022-07-12T15:29:05;27.20;24.30
4840;DHT22;2434;48.486;7.964;2022-07-12T15:31:33;27.30;24.60
4840;DHT22;2434;48.486;7.964;2022-07-12T15:34:02;27.30;25.30
4840;DHT22;2434;48.486;7.964;2022-07-12T15:36:32;27.40;24.00
4840;DHT22;2434;48.486;7.964;2022-07-12T15:39:00;27.40;24.20
4840;DHT22;2434;48.486;7.964;2022-07-12T15:41:29;27.40;23.90
4840;DHT22;2434;48.486;7.964;2022-07-12T15:43:57;27.30;24.00
4840;DHT22;2434;48.486;7.964;2022-07-12T15:46:26;27.40;24.90
4840;DHT22;2434;48.486;7.964;2022-07-12T15:48:54;27.40;25.60
4840;DHT22;2434;48.486;7.964;2022-07-12T15:51:22;27.20;24.30
4840;DHT22;2434;48.486;7.964;2022-07-12T15:54:12;27.40;24.50
4840;DHT22;2434;48.486;7.964;2022-07-12T15:56:40;27.50;24.50
4840;DHT22;2434;48.486;7.964;2022-07-12T15:59:08;27.40;24.50
4840;DHT22;2434;48.486;7.964;2022-07-12T16:01:36;27.50;24.90
4840;DHT22;2434;48.486;7.964;2022-07-12T16:04:05;27.70;24.40
4840;DHT22;2434;48.486;7.964;2022-07-12T16:06:34;27.70;23.60
4840;DHT22;2434;48.486;7.964;2022-07-12T16:09:03;27.80;23.80
4840;DHT22;2434;48.486;7.964;2022-07-12T16:11:33;27.60;23.60
4840;DHT22;2434;48.486;7.964;2022-07-12T16:14:01;27.60;24.00
4840;DHT22;2434;48.486;7.964;2022-07-12T16:16:29;27.90;23.90
4840;DHT22;2434;48.486;7.964;2022-07-12T16:18:58;27.60;25.50
4840;DHT22;2434;48.486;7.964;2022-07-12T16:21:26;27.70;24.70